Time;durP1;ratioP1;P1;durP2;ratioP2;P2;SDS_P1;SDS_P2;PMS_P1;PMS_P2;Temp;Humidity;BMP_temperature;BMP_pressure;BME280_temperature;BME280_humidity;BME280_pressure;Samples;Min_cycle;Max_cycle;Signal;HPM_P1;HPM_P2
2021/06/19 00:02:10;;;;;;;7.70;6.13;;;20.40;68.60;;;;;;5041683;28;20041;-78
2021/06/19 00:04:35;;;;;;;7.05;6.38;;;20.30;68.70;;;;;;5045511;28;20539;-78
2021/06/19 00:07:05;;;;;;;7.07;6.30;;;20.30;69.40;;;;;;5044964;28;20017;-79
2021/06/19 00:09:32;;;;;;;8.77;7.03;;;20.30;70.10;;;;;;5039095;28;20024;-78
2021/06/19 00:11:58;;;;;;;7.70;6.57;;;20.10;70.50;;;;;;5042252;28;20028;-78
2021/06/19 00:14:24;;;;;;;8.05;7.00;;;20.20;70.00;;;;;;5054195;28;20044;-79
2021/06/19 00:16:49;;;;;;;7.80;6.43;;;20.00;70.70;;;;;;5044259;28;20025;-79
2021/06/19 00:19:16;;;;;;;7.18;6.47;;;20.10;70.20;;;;;;5038678;28;20029;-78
2021/06/19 00:21:42;;;;;;;7.32;6.63;;;20.20;70.50;;;;;;5044542;28;20051;-77
2021/06/19 00:24:12;;;;;;;9.63;7.05;;;20.20;70.70;;;;;;5042693;28;20029;-79
2021/06/19 00:26:39;;;;;;;8.18;6.88;;;20.30;70.40;;;;;;5040078;28;20352;-78
2021/06/19 00:29:05;;;;;;;9.07;7.38;;;20.20;70.20;;;;;;5037414;28;20086;-78
2021/06/19 00:31:31;;;;;;;7.22;6.10;;;20.20;70.50;;;;;;5043384;28;20586;-78
2021/06/19 00:33:58;;;;;;;7.75;6.68;;;20.30;69.70;;;;;;5052312;28;20064;-78
2021/06/19 00:36:24;;;;;;;7.65;6.40;;;20.30;70.10;;;;;;5040161;28;20108;-79
2021/06/19 00:38:49;;;;;;;9.15;6.85;;;20.30;69.70;;;;;;5040512;28;20543;-79
2021/06/19 00:41:15;;;;;;;7.88;7.05;;;20.20;70.20;;;;;;5036656;28;20475;-79
2021/06/19 00:43:40;;;;;;;7.63;6.85;;;20.30;70.40;;;;;;5040090;28;20479;-79
2021/06/19 00:46:07;;;;;;;8.23;7.20;;;20.30;70.20;;;;;;5041498;28;20543;-79
2021/06/19 00:48:32;;;;;;;9.35;7.55;;;20.30;70.40;;;;;;5048405;28;20024;-78
2021/06/19 00:50:58;;;;;;;10.32;6.78;;;20.30;70.70;;;;;;5039178;28;20057;-78
2021/06/19 00:53:24;;;;;;;7.50;6.80;;;20.30;70.80;;;;;;5049553;28;20021;-79
2021/06/19 00:55:50;;;;;;;9.80;6.97;;;20.30;70.40;;;;;;5041705;28;20029;-78
2021/06/19 00:58:16;;;;;;;7.75;6.97;;;20.30;70.50;;;;;;5046766;28;20063;-78
2021/06/19 01:00:42;;;;;;;7.68;6.93;;;20.30;70.70;;;;;;5039831;28;20053;-78
2021/06/19 01:03:07;;;;;;;8.18;6.80;;;20.30;70.50;;;;;;5040443;28;20029;-78
2021/06/19 01:05:33;;;;;;;7.95;7.10;;;20.20;71.30;;;;;;5046153;28;20550;-78
2021/06/19 01:08:00;;;;;;;7.97;6.55;;;20.00;71.50;;;;;;5039915;28;20057;-79
2021/06/19 01:10:27;;;;;;;9.45;7.05;;;20.10;72.00;;;;;;5038570;28;20041;-78
2021/06/19 01:12:53;;;;;;;8.57;7.78;;;20.00;73.60;;;;;;5039461;28;20442;-79
2021/06/19 01:15:20;;;;;;;9.18;7.32;;;20.00;72.40;;;;;;5042439;28;20017;-78
2021/06/19 01:17:46;;;;;;;8.35;7.55;;;19.90;72.70;;;;;;5046312;28;20024;-79
2021/06/19 01:20:13;;;;;;;9.02;7.75;;;19.90;72.90;;;;;;5042094;28;20070;-79
2021/06/19 01:22:44;;;;;;;8.23;6.93;;;19.90;72.70;;;;;;5044208;28;20029;-78
2021/06/19 01:25:19;;;;;;;9.00;7.22;;;20.00;72.70;;;;;;5039159;28;20029;-78
2021/06/19 01:27:48;;;;;;;7.57;6.75;;;20.00;72.80;;;;;;5038839;28;20155;-78
2021/06/19 01:30:15;;;;;;;9.48;7.47;;;20.00;72.80;;;;;;5039463;28;20033;-79
2021/06/19 01:32:41;;;;;;;8.27;6.57;;;20.10;72.40;;;;;;5046319;28;20435;-79
2021/06/19 01:35:09;;;;;;;10.70;7.47;;;20.10;71.80;;;;;;5040222;28;20621;-78
2021/06/19 01:37:37;;;;;;;11.77;7.97;;;20.20;71.50;;;;;;5041623;28;20539;-79
2021/06/19 01:40:09;;;;;;;7.82;7.03;;;20.30;71.60;;;;;;5037229;28;20029;-78
2021/06/19 01:42:38;;;;;;;7.90;7.07;;;20.30;71.30;;;;;;5046241;28;20025;-79
2021/06/19 01:45:05;;;;;;;8.88;7.18;;;20.30;71.10;;;;;;5040270;28;20053;-78
2021/06/19 01:47:30;;;;;;;8.02;6.82;;;20.30;70.80;;;;;;5031397;28;20097;-79
2021/06/19 01:49:56;;;;;;;9.15;7.53;;;20.30;71.10;;;;;;5044956;28;20048;-78
2021/06/19 01:52:22;;;;;;;8.88;6.75;;;20.20;71.50;;;;;;5046483;28;20033;-79
2021/06/19 01:54:48;;;;;;;10.13;7.30;;;20.20;71.60;;;;;;5047546;28;20037;-78
2021/06/19 01:57:13;;;;;;;8.25;7.43;;;20.10;71.60;;;;;;5046026;28;20032;-79
2021/06/19 01:59:39;;;;;;;8.40;7.45;;;19.90;72.80;;;;;;5046758;28;20483;-78
2021/06/19 02:02:04;;;;;;;10.20;6.88;;;19.90;72.70;;;;;;5043704;28;20041;-78
2021/06/19 02:04:33;;;;;;;10.25;7.57;;;20.00;72.30;;;;;;5051870;28;20025;-78
2021/06/19 02:06:59;;;;;;;8.35;7.55;;;20.00;72.40;;;;;;5051907;28;20032;-79
2021/06/19 02:09:25;;;;;;;8.07;7.25;;;20.10;72.70;;;;;;5047027;28;20032;-79
2021/06/19 02:11:51;;;;;;;9.02;7.32;;;20.00;72.30;;;;;;5038030;28;20040;-78
2021/06/19 02:14:16;;;;;;;9.80;7.65;;;20.10;72.30;;;;;;5043440;28;20408;-78
2021/06/19 02:16:43;;;;;;;7.85;7.03;;;20.10;72.90;;;;;;5043551;28;20033;-79
2021/06/19 02:19:09;;;;;;;8.13;7.22;;;20.00;72.30;;;;;;5045698;28;20016;-79
2021/06/19 02:21:35;;;;;;;7.85;6.97;;;20.10;72.10;;;;;;5037590;28;20012;-79
2021/06/19 02:24:02;;;;;;;12.23;7.85;;;20.10;72.50;;;;;;5050992;28;20082;-78
2021/06/19 02:26:27;;;;;;;8.50;7.35;;;20.20;72.20;;;;;;5045086;28;20480;-79
2021/06/19 02:28:53;;;;;;;8.68;7.18;;;20.10;73.10;;;;;;5041119;28;20090;-78
2021/06/19 02:31:20;;;;;;;8.32;6.90;;;20.10;72.60;;;;;;5046230;28;20183;-78
2021/06/19 02:33:47;;;;;;;9.05;6.85;;;19.90;73.60;;;;;;5046575;28;20102;-78
2021/06/19 02:36:16;;;;;;;10.60;8.52;;;19.90;73.60;;;;;;5049176;28;20802;-78
2021/06/19 02:38:44;;;;;;;8.52;7.13;;;19.90;73.60;;;;;;5053519;28;20641;-78
2021/06/19 02:41:09;;;;;;;9.47;8.50;;;20.00;72.80;;;;;;5039575;28;20044;-79
2021/06/19 02:43:35;;;;;;;8.38;7.57;;;19.90;73.00;;;;;;5048393;28;20064;-79
2021/06/19 02:46:00;;;;;;;10.23;7.30;;;20.00;72.90;;;;;;5041185;28;20036;-78
2021/06/19 02:48:27;;;;;;;7.57;6.72;;;20.00;72.80;;;;;;5041682;28;20065;-79
2021/06/19 02:50:54;;;;;;;8.15;7.22;;;20.00;72.80;;;;;;5044314;28;20045;-80
2021/06/19 02:53:19;;;;;;;9.65;7.57;;;20.00;72.70;;;;;;5041247;28;20017;-78
2021/06/19 02:55:45;;;;;;;12.80;8.60;;;20.00;73.20;;;;;;5044095;28;20025;-78
2021/06/19 02:58:12;;;;;;;8.23;7.18;;;20.00;72.90;;;;;;5042592;28;20029;-78
2021/06/19 03:00:38;;;;;;;10.82;7.13;;;20.00;73.00;;;;;;5044913;28;20487;-79
2021/06/19 03:03:05;;;;;;;8.32;7.47;;;19.90;73.00;;;;;;5042962;28;20025;-78
2021/06/19 03:05:32;;;;;;;9.45;7.50;;;19.90;73.40;;;;;;5043183;28;20174;-78
2021/06/19 03:08:00;;;;;;;8.60;7.73;;;19.80;73.40;;;;;;5043603;28;20025;-78
2021/06/19 03:10:37;;;;;;;9.50;7.67;;;19.80;73.70;;;;;;5046707;28;20037;-78
2021/06/19 03:13:03;;;;;;;9.82;7.22;;;19.90;73.50;;;;;;5047174;28;20146;-78
2021/06/19 03:15:29;;;;;;;8.00;6.72;;;19.90;73.30;;;;;;5039470;28;20025;-79
2021/06/19 03:17:55;;;;;;;7.80;6.47;;;19.90;73.20;;;;;;5042755;28;20029;-79
2021/06/19 03:20:21;;;;;;;8.32;6.95;;;19.80;73.10;;;;;;5045753;28;20013;-78
2021/06/19 03:22:57;;;;;;;9.18;6.25;;;19.80;73.40;;;;;;5048445;28;20043;-78
2021/06/19 03:25:28;;;;;;;9.02;7.35;;;19.70;74.10;;;;;;5040930;28;20029;-78
2021/06/19 03:27:55;;;;;;;9.93;6.88;;;19.70;74.10;;;;;;5043712;28;20072;-79
2021/06/19 03:30:22;;;;;;;8.02;6.70;;;19.60;74.10;;;;;;5034574;28;20770;-78
2021/06/19 03:32:48;;;;;;;8.10;6.50;;;19.70;74.20;;;;;;5046935;28;20021;-78
2021/06/19 03:35:15;;;;;;;7.72;6.70;;;19.70;73.60;;;;;;5052736;28;20111;-78
2021/06/19 03:37:42;;;;;;;7.53;6.80;;;19.70;73.00;;;;;;5043157;28;20127;-78
2021/06/19 03:40:09;;;;;;;7.25;6.55;;;19.70;73.70;;;;;;5045206;28;20078;-79
2021/06/19 03:42:36;;;;;;;8.52;7.38;;;19.70;73.30;;;;;;5038578;28;20017;-79
2021/06/19 03:45:03;;;;;;;9.07;6.80;;;19.70;74.30;;;;;;5046397;28;20318;-79
2021/06/19 03:47:28;;;;;;;8.75;7.15;;;19.70;73.70;;;;;;5040640;28;20029;-79
2021/06/19 03:49:54;;;;;;;8.38;7.18;;;19.70;74.10;;;;;;5043462;28;20033;-79
2021/06/19 03:52:20;;;;;;;7.72;6.97;;;19.60;74.30;;;;;;5043335;28;20110;-79
2021/06/19 03:54:45;;;;;;;8.32;7.28;;;19.70;74.00;;;;;;5053933;28;20476;-79
2021/06/19 03:57:25;;;;;;;8.93;7.05;;;19.70;74.50;;;;;;5041554;28;20025;-79
2021/06/19 03:59:52;;;;;;;10.93;7.57;;;19.70;74.60;;;;;;5044295;28;20021;-79
2021/06/19 04:02:18;;;;;;;11.02;7.40;;;19.70;74.70;;;;;;5037187;28;20029;-79
2021/06/19 04:04:45;;;;;;;8.77;7.05;;;19.70;74.90;;;;;;5045207;28;20033;-78
2021/06/19 04:07:11;;;;;;;10.75;6.95;;;19.70;74.90;;;;;;5051055;28;20033;-78
2021/06/19 04:09:37;;;;;;;12.45;6.95;;;19.70;75.20;;;;;;5045908;28;20523;-79
2021/06/19 04:12:03;;;;;;;7.40;6.60;;;19.60;74.90;;;;;;5040029;28;20040;-79
2021/06/19 04:14:29;;;;;;;8.65;7.40;;;19.70;74.90;;;;;;5044366;28;20768;-79
2021/06/19 04:16:54;;;;;;;8.35;7.15;;;19.80;74.60;;;;;;5045885;28;20115;-79
2021/06/19 04:19:20;;;;;;;9.85;7.18;;;19.80;74.80;;;;;;5047107;28;20090;-79
2021/06/19 04:21:46;;;;;;;8.13;6.93;;;19.80;74.70;;;;;;5047585;28;20078;-79
2021/06/19 04:24:11;;;;;;;8.98;6.28;;;19.90;74.60;;;;;;5040080;28;20483;-79
2021/06/19 04:26:37;;;;;;;7.80;7.05;;;19.90;74.00;;;;;;5039771;28;20017;-79
2021/06/19 04:29:03;;;;;;;8.75;6.70;;;19.80;74.00;;;;;;5044861;28;20060;-79
2021/06/19 04:31:31;;;;;;;9.05;6.97;;;19.90;74.60;;;;;;5046542;28;20091;-79
2021/06/19 04:33:56;;;;;;;;;;;19.80;75.50;;;;;;5049913;28;20116;-79
2021/06/19 04:36:22;;;;;;;8.30;6.63;;;19.80;75.70;;;;;;5043883;28;20007;-79
2021/06/19 04:38:48;;;;;;;8.55;6.47;;;19.80;76.30;;;;;;5037252;28;20025;-79
2021/06/19 04:41:30;;;;;;;9.50;7.00;;;19.90;75.20;;;;;;5043644;28;20028;-79
2021/06/19 04:46:21;;;;;;;11.20;7.53;;;20.00;75.50;;;;;;5045404;28;20391;-79
2021/06/19 04:48:47;;;;;;;8.95;7.20;;;20.00;74.80;;;;;;5049273;28;20104;-78
2021/06/19 04:51:13;;;;;;;9.32;7.45;;;20.00;75.60;;;;;;5042366;28;20049;-79
2021/06/19 04:53:39;;;;;;;11.02;7.82;;;20.00;75.70;;;;;;5038293;28;20432;-78
2021/06/19 04:56:05;;;;;;;10.57;7.88;;;20.00;75.60;;;;;;5042808;28;20033;-78
2021/06/19 04:58:31;;;;;;;10.52;7.95;;;20.00;75.80;;;;;;5046340;28;20056;-80
2021/06/19 05:00:57;;;;;;;9.52;7.63;;;19.90;75.80;;;;;;5045762;28;20496;-79
2021/06/19 05:03:23;;;;;;;8.73;7.70;;;19.90;76.10;;;;;;5040953;28;20036;-78
2021/06/19 05:05:52;;;;;;;10.65;7.47;;;20.00;76.10;;;;;;5046396;28;20021;-78
2021/06/19 05:08:18;;;;;;;9.38;7.07;;;20.10;75.60;;;;;;5049389;28;20037;-78
2021/06/19 05:10:44;;;;;;;10.13;8.15;;;20.10;76.40;;;;;;5045976;28;20025;-78
2021/06/19 05:13:10;;;;;;;11.57;7.57;;;20.20;77.10;;;;;;5042193;28;20038;-79
2021/06/19 05:15:36;;;;;;;9.90;7.85;;;20.30;78.10;;;;;;5048658;28;20055;-78
2021/06/19 05:18:01;;;;;;;9.80;7.53;;;20.30;77.70;;;;;;5052823;28;20025;-78
2021/06/19 05:20:29;;;;;;;10.20;7.22;;;20.40;77.00;;;;;;5049699;28;20108;-79
2021/06/19 05:22:59;;;;;;;10.32;7.43;;;20.50;77.00;;;;;;5053200;28;20017;-79
2021/06/19 05:25:26;;;;;;;10.57;7.78;;;20.60;75.80;;;;;;5043397;28;20135;-79
2021/06/19 05:27:52;;;;;;;9.85;7.95;;;20.70;75.20;;;;;;5054728;28;20040;-79
2021/06/19 05:30:19;;;;;;;9.90;7.28;;;20.80;75.50;;;;;;5044244;28;20037;-79
2021/06/19 05:32:45;;;;;;;9.52;8.05;;;20.90;75.60;;;;;;5043636;28;20024;-78
2021/06/19 05:35:11;;;;;;;11.45;7.85;;;20.90;75.20;;;;;;5047657;28;20084;-79
2021/06/19 05:37:37;;;;;;;10.55;8.35;;;21.10;75.10;;;;;;5047309;28;20111;-78
2021/06/19 05:40:04;;;;;;;10.18;8.02;;;21.20;75.10;;;;;;5047971;28;20407;-78
2021/06/19 05:42:30;;;;;;;11.57;8.07;;;21.30;74.10;;;;;;5047189;28;20059;-79
2021/06/19 05:44:55;;;;;;;10.02;8.45;;;21.40;74.00;;;;;;5047961;28;20056;-79
2021/06/19 05:47:21;;;;;;;9.88;8.23;;;21.50;74.10;;;;;;5047714;28;20055;-78
2021/06/19 05:49:47;;;;;;;13.07;8.23;;;21.70;74.00;;;;;;5045858;28;20044;-78
2021/06/19 05:52:13;;;;;;;10.38;7.90;;;21.80;73.70;;;;;;5047713;28;20595;-79
2021/06/19 05:54:38;;;;;;;10.07;7.90;;;21.90;73.10;;;;;;5044885;28;20113;-78
2021/06/19 05:57:05;;;;;;;10.70;7.93;;;22.00;72.80;;;;;;5051857;28;20017;-77
2021/06/19 05:59:31;;;;;;;10.98;8.57;;;22.10;72.10;;;;;;5048396;28;20032;-76
2021/06/19 06:01:57;;;;;;;11.65;8.32;;;22.10;72.90;;;;;;5049483;28;20048;-78
2021/06/19 06:04:23;;;;;;;12.75;8.38;;;22.20;72.50;;;;;;5046901;28;20491;-77
2021/06/19 06:06:49;;;;;;;11.00;8.45;;;22.20;72.00;;;;;;5046073;28;20478;-77
2021/06/19 06:09:14;;;;;;;11.02;8.48;;;22.30;71.80;;;;;;5048741;28;20036;-78
2021/06/19 06:11:40;;;;;;;12.32;9.05;;;22.30;71.50;;;;;;5043983;28;20029;-79
2021/06/19 06:14:10;;;;;;;10.77;7.93;;;22.40;72.20;;;;;;5047018;28;20855;-77
2021/06/19 06:16:36;;;;;;;11.88;9.10;;;22.60;72.10;;;;;;5045072;28;20035;-78
2021/06/19 06:19:02;;;;;;;9.90;8.15;;;22.70;71.30;;;;;;5048458;28;20188;-77
2021/06/19 06:21:27;;;;;;;12.57;8.40;;;22.80;71.10;;;;;;5046895;28;20827;-78
2021/06/19 06:23:53;;;;;;;12.55;7.72;;;22.90;71.60;;;;;;5045825;28;20037;-77
2021/06/19 06:26:19;;;;;;;10.00;7.47;;;22.90;71.40;;;;;;5050720;28;20025;-76
2021/06/19 06:28:45;;;;;;;13.15;7.43;;;22.90;70.80;;;;;;5046418;28;20399;-78
2021/06/19 06:31:11;;;;;;;15.30;7.93;;;23.00;70.30;;;;;;5047345;28;20131;-77
2021/06/19 06:33:36;;;;;;;9.60;6.43;;;23.00;69.80;;;;;;5050530;28;20025;-77
2021/06/19 06:36:02;;;;;;;13.70;7.38;;;23.00;69.40;;;;;;5047336;28;20032;-79
2021/06/19 06:38:28;;;;;;;11.23;7.38;;;23.00;69.10;;;;;;5047730;28;20021;-78
2021/06/19 06:40:54;;;;;;;11.43;6.90;;;23.00;69.10;;;;;;5047916;28;20025;-78
2021/06/19 06:43:19;;;;;;;9.35;7.03;;;23.10;69.00;;;;;;5046659;28;20075;-76
2021/06/19 06:45:45;;;;;;;12.45;6.70;;;23.30;69.00;;;;;;5048836;28;20078;-77
2021/06/19 06:48:11;;;;;;;9.75;6.60;;;23.40;68.40;;;;;;5046730;28;22636;-78
2021/06/19 06:50:37;;;;;;;8.30;5.72;;;23.50;67.80;;;;;;5043365;28;20486;-79
2021/06/19 06:53:03;;;;;;;9.80;6.45;;;23.60;67.10;;;;;;5043930;28;20054;-79
2021/06/19 06:55:29;;;;;;;8.82;6.75;;;23.70;67.80;;;;;;5048021;28;20606;-76
2021/06/19 06:57:54;;;;;;;9.55;6.78;;;23.80;67.60;;;;;;5045027;28;20017;-77
2021/06/19 07:00:21;;;;;;;13.50;6.10;;;23.80;67.10;;;;;;5047690;28;20025;-76
2021/06/19 07:02:46;;;;;;;9.82;6.53;;;24.00;67.00;;;;;;5042557;28;20024;-77
2021/06/19 07:05:13;;;;;;;7.70;6.28;;;24.00;66.60;;;;;;5042806;28;20025;-78
2021/06/19 07:07:40;;;;;;;8.60;5.85;;;24.00;66.60;;;;;;5048914;28;20500;-79
2021/06/19 07:10:08;;;;;;;9.53;5.77;;;24.10;66.20;;;;;;5041723;28;20567;-78
2021/06/19 07:12:36;;;;;;;7.35;5.40;;;24.20;65.70;;;;;;5047620;28;20024;-78
2021/06/19 07:15:05;;;;;;;11.07;5.97;;;24.30;65.30;;;;;;5050232;28;20071;-77
2021/06/19 07:17:31;;;;;;;8.40;5.45;;;24.50;65.60;;;;;;5048475;28;20025;-77
2021/06/19 07:19:56;;;;;;;9.25;5.38;;;24.60;65.30;;;;;;5047587;28;20125;-77
2021/06/19 07:22:22;;;;;;;9.43;5.40;;;24.70;64.30;;;;;;5044409;28;20029;-77
2021/06/19 07:24:48;;;;;;;7.72;5.50;;;24.70;63.60;;;;;;5046541;28;20107;-77
2021/06/19 07:27:14;;;;;;;9.38;5.40;;;24.80;63.20;;;;;;5047525;28;20037;-78
2021/06/19 07:29:41;;;;;;;12.20;4.95;;;24.90;62.90;;;;;;5044236;28;20028;-78
2021/06/19 07:32:07;;;;;;;7.07;5.20;;;24.90;63.20;;;;;;5040570;28;20029;-77
2021/06/19 07:34:33;;;;;;;8.77;5.55;;;25.00;63.00;;;;;;5047153;28;20287;-76
2021/06/19 07:36:59;;;;;;;8.57;5.82;;;25.00;62.80;;;;;;5050875;28;20219;-77
2021/06/19 07:39:25;;;;;;;9.65;6.18;;;25.10;62.80;;;;;;5047562;28;20025;-77
2021/06/19 07:41:50;;;;;;;9.63;5.63;;;25.10;62.80;;;;;;5041862;28;20021;-79
2021/06/19 07:44:16;;;;;;;10.27;5.32;;;25.30;62.80;;;;;;5048900;28;20048;-78
2021/06/19 07:46:42;;;;;;;10.70;5.95;;;25.30;61.40;;;;;;5049961;28;20231;-79
2021/06/19 07:49:08;;;;;;;8.90;5.45;;;25.40;60.70;;;;;;5046208;28;20032;-78
2021/06/19 07:51:33;;;;;;;7.50;5.10;;;25.50;60.80;;;;;;5046116;28;20036;-79
2021/06/19 07:54:00;;;;;;;6.63;5.47;;;25.50;59.30;;;;;;5049559;28;20508;-79
2021/06/19 07:56:26;;;;;;;10.32;4.93;;;25.60;60.10;;;;;;5048975;28;20041;-78
2021/06/19 07:58:51;;;;;;;8.65;4.82;;;25.70;59.60;;;;;;5048605;28;20048;-77
2021/06/19 08:01:17;;;;;;;7.32;4.63;;;25.80;59.60;;;;;;5045035;28;20043;-78
2021/06/19 08:03:43;;;;;;;9.35;5.22;;;25.80;56.60;;;;;;5048634;28;20037;-78
2021/06/19 08:06:09;;;;;;;10.05;6.13;;;25.90;58.10;;;;;;5046672;28;20404;-78
2021/06/19 08:08:35;;;;;;;10.07;5.55;;;26.00;57.90;;;;;;5047961;28;20090;-78
2021/06/19 08:11:00;;;;;;;7.43;5.18;;;26.00;57.40;;;;;;5050812;28;20578;-78
2021/06/19 08:13:27;;;;;;;9.75;5.72;;;26.00;59.10;;;;;;5042386;28;20047;-77
2021/06/19 08:15:56;;;;;;;7.55;5.30;;;26.20;59.00;;;;;;5052377;28;20499;-78
2021/06/19 08:18:22;;;;;;;8.23;5.35;;;26.30;59.70;;;;;;5045807;28;20044;-77
2021/06/19 08:20:47;;;;;;;8.10;4.47;;;26.30;57.30;;;;;;5043995;28;20025;-77
2021/06/19 08:23:13;;;;;;;7.57;5.70;;;26.40;56.30;;;;;;5046167;28;20071;-76
2021/06/19 08:25:39;;;;;;;10.38;5.03;;;26.50;56.30;;;;;;5040135;28;20116;-79
2021/06/19 08:28:04;;;;;;;7.90;5.43;;;26.50;56.90;;;;;;5035589;28;20036;-77
2021/06/19 08:30:30;;;;;;;11.70;5.75;;;26.40;56.60;;;;;;5040379;28;20021;-77
2021/06/19 08:32:56;;;;;;;8.38;5.57;;;26.30;55.70;;;;;;5037171;28;20029;-76
2021/06/19 08:35:22;;;;;;;12.00;5.47;;;26.40;55.50;;;;;;5043722;28;21774;-78
2021/06/19 08:37:47;;;;;;;6.35;5.43;;;26.50;56.10;;;;;;5038407;28;20462;-76
2021/06/19 08:40:13;;;;;;;10.05;5.78;;;26.60;56.00;;;;;;5037316;28;20051;-76
2021/06/19 08:42:39;;;;;;;7.05;5.00;;;26.60;56.10;;;;;;5034152;28;20025;-77
2021/06/19 08:45:06;;;;;;;7.85;5.70;;;26.80;56.40;;;;;;5035182;28;20963;-77
2021/06/19 08:47:36;;;;;;;9.45;5.90;;;26.80;55.90;;;;;;5033791;28;20041;-78
2021/06/19 08:50:07;;;;;;;7.45;5.15;;;26.80;56.10;;;;;;5038691;28;20029;-78
2021/06/19 08:52:35;;;;;;;11.57;5.32;;;27.00;56.30;;;;;;5039955;28;20029;-78
2021/06/19 08:55:01;;;;;;;8.77;4.70;;;27.00;55.10;;;;;;5037818;28;20021;-77
2021/06/19 08:57:27;;;;;;;11.02;5.47;;;27.10;56.20;;;;;;5036638;28;20120;-79
2021/06/19 08:59:53;;;;;;;7.45;5.05;;;27.10;55.80;;;;;;5037915;28;20334;-78
2021/06/19 09:02:19;;;;;;;10.45;5.97;;;27.20;54.60;;;;;;5042445;28;20045;-78
2021/06/19 09:04:59;;;;;;;6.78;4.80;;;27.30;54.90;;;;;;5040541;28;20041;-77
2021/06/19 09:07:39;;;;;;;10.30;5.25;;;27.30;54.50;;;;;;5040230;28;20047;-77
2021/06/19 09:10:26;;;;;;;8.88;4.75;;;27.40;55.80;;;;;;5042202;28;20022;-79
2021/06/19 09:13:11;;;;;;;10.93;5.57;;;27.50;53.40;;;;;;5043812;28;20123;-78
2021/06/19 09:15:42;;;;;;;8.88;5.38;;;27.40;51.70;;;;;;5038655;28;20038;-77
2021/06/19 09:18:28;;;;;;;6.75;5.05;;;27.50;52.50;;;;;;5044720;28;20518;-77
2021/06/19 09:21:03;;;;;;;10.20;5.60;;;27.40;55.90;;;;;;5041668;28;20037;-76
2021/06/19 09:23:38;;;;;;;12.30;5.90;;;27.40;55.40;;;;;;5042045;28;20048;-77
2021/06/19 09:26:17;;;;;;;6.65;5.40;;;27.40;57.60;;;;;;5060132;28;20049;-77
2021/06/19 09:29:03;;;;;;;11.45;5.30;;;27.40;52.30;;;;;;5058532;28;20021;-78
2021/06/19 09:31:31;;;;;;;6.72;5.10;;;27.50;52.30;;;;;;5043277;28;20057;-78
2021/06/19 09:34:09;;;;;;;7.13;5.18;;;27.70;53.30;;;;;;5042866;28;20083;-76
2021/06/19 09:36:49;;;;;;;8.52;5.20;;;27.60;53.70;;;;;;5043329;28;20025;-78
2021/06/19 09:39:18;;;;;;;8.30;5.05;;;27.80;55.50;;;;;;5038414;28;20082;-78
2021/06/19 09:41:55;;;;;;;6.38;4.75;;;27.80;53.90;;;;;;5041881;28;20021;-78
2021/06/19 09:44:41;;;;;;;11.00;5.18;;;27.80;53.10;;;;;;5041295;28;20033;-77
2021/06/19 09:47:09;;;;;;;7.20;5.10;;;28.00;51.90;;;;;;5043443;28;20423;-79
2021/06/19 09:49:38;;;;;;;7.53;4.68;;;28.10;53.60;;;;;;5043864;28;20020;-80
2021/06/19 09:52:04;;;;;;;8.88;4.95;;;28.30;50.70;;;;;;5041771;28;20033;-79
2021/06/19 09:54:39;;;;;;;10.30;5.30;;;28.40;51.80;;;;;;5055079;28;20124;-79
2021/06/19 09:57:08;;;;;;;9.15;4.60;;;28.50;52.90;;;;;;5032713;28;20052;-76
2021/06/19 09:59:36;;;;;;;7.72;4.68;;;28.40;50.60;;;;;;5039068;28;20196;-77
2021/06/19 10:02:14;;;;;;;7.90;4.75;;;28.20;51.50;;;;;;5035525;28;20111;-77
2021/06/19 10:04:40;;;;;;;10.60;4.60;;;28.20;53.60;;;;;;5054804;28;20465;-78
2021/06/19 10:07:06;;;;;;;9.13;4.97;;;28.30;50.00;;;;;;5037958;28;20138;-76
2021/06/19 10:09:32;;;;;;;8.85;4.78;;;28.30;49.40;;;;;;5038726;28;20116;-77
2021/06/19 10:11:59;;;;;;;8.55;4.90;;;28.40;49.20;;;;;;5038515;28;20045;-76
2021/06/19 10:14:24;;;;;;;12.65;4.93;;;28.50;49.90;;;;;;5036826;28;20026;-78
2021/06/19 10:16:57;;;;;;;12.27;5.00;;;28.60;52.80;;;;;;5034548;28;20025;-78
2021/06/19 10:19:25;;;;;;;10.00;4.90;;;28.70;50.70;;;;;;5037875;28;20025;-78
2021/06/19 10:21:55;;;;;;;9.88;4.47;;;28.70;50.00;;;;;;5038652;28;20031;-78
2021/06/19 10:24:22;;;;;;;9.45;5.07;;;28.80;48.30;;;;;;5038658;28;20523;-77
2021/06/19 10:26:48;;;;;;;;;;;28.80;48.20;;;;;;5041647;28;20017;-77
2021/06/19 10:29:15;;;;;;;8.77;5.07;;;28.80;50.50;;;;;;5037605;28;20422;-78
2021/06/19 10:31:43;;;;;;;7.82;4.78;;;28.80;50.40;;;;;;5036559;28;20496;-78
2021/06/19 10:34:32;;;;;;;10.45;5.53;;;28.90;47.40;;;;;;5052055;28;20059;-76
2021/06/19 10:37:05;;;;;;;7.78;4.90;;;29.00;49.00;;;;;;5037008;28;20021;-76
2021/06/19 10:39:43;;;;;;;9.85;5.43;;;29.00;49.40;;;;;;5039058;28;20120;-76
2021/06/19 10:42:33;;;;;;;10.30;5.13;;;29.00;49.30;;;;;;5039222;28;20117;-76
2021/06/19 10:45:00;;;;;;;8.07;5.15;;;29.10;49.60;;;;;;5037433;28;20044;-77
2021/06/19 10:47:28;;;;;;;7.38;4.82;;;29.10;49.60;;;;;;5038682;28;20074;-78
2021/06/19 10:49:54;;;;;;;7.63;4.65;;;29.10;48.30;;;;;;5042269;28;20029;-75
2021/06/19 10:52:34;;;;;;;8.73;4.78;;;29.00;48.00;;;;;;5039289;28;20056;-74
2021/06/19 10:55:09;;;;;;;8.98;4.72;;;29.00;50.50;;;;;;5040986;28;20037;-74
2021/06/19 10:57:41;;;;;;;9.68;5.45;;;29.00;48.80;;;;;;5041713;28;20115;-75
2021/06/19 11:00:34;;;;;;;7.97;4.93;;;29.00;50.40;;;;;;5037297;28;20809;-75
2021/06/19 11:03:06;;;;;;;9.38;4.90;;;29.00;49.70;;;;;;5033944;28;20123;-75
2021/06/19 11:05:41;;;;;;;7.07;4.53;;;29.00;51.90;;;;;;5041584;28;20069;-74
2021/06/19 11:08:11;;;;;;;7.68;4.78;;;29.00;47.40;;;;;;5042412;28;20025;-77
2021/06/19 11:10:49;;;;;;;9.32;5.35;;;29.00;45.50;;;;;;5042985;28;20032;-77
2021/06/19 11:13:30;;;;;;;9.48;4.82;;;29.10;47.00;;;;;;5038551;28;20025;-77
2021/06/19 11:16:00;;;;;;;8.80;4.35;;;29.10;48.50;;;;;;5035350;28;20645;-76
2021/06/19 11:18:47;;;;;;;9.48;5.28;;;29.10;49.70;;;;;;5043647;28;20126;-77
2021/06/19 11:21:15;;;;;;;7.80;4.40;;;29.20;47.30;;;;;;5046631;28;20514;-77
2021/06/19 11:24:00;;;;;;;7.07;4.72;;;29.20;47.40;;;;;;5056263;28;20067;-77
2021/06/19 11:29:41;;;;;;;12.55;5.95;;;29.20;47.30;;;;;;5045086;28;20029;-76
2021/06/19 11:32:28;;;;;;;11.35;5.22;;;29.30;51.10;;;;;;5042075;28;20037;-77
2021/06/19 11:34:59;;;;;;;9.50;5.15;;;29.20;47.90;;;;;;5044333;28;20021;-77
2021/06/19 11:37:44;;;;;;;8.68;5.47;;;29.20;50.90;;;;;;5035440;28;20021;-78
2021/06/19 11:40:11;;;;;;;11.43;5.60;;;29.10;52.20;;;;;;5041746;28;20028;-77
2021/06/19 11:42:43;;;;;;;7.68;5.15;;;29.00;50.80;;;;;;5043968;28;20104;-77
2021/06/19 11:45:14;;;;;;;10.48;5.55;;;28.90;49.20;;;;;;5044193;28;20047;-77
2021/06/19 11:47:40;;;;;;;8.10;5.28;;;29.00;54.30;;;;;;5043537;28;20107;-77
2021/06/19 11:50:09;;;;;;;9.07;4.93;;;28.90;48.20;;;;;;5042459;28;20152;-77
2021/06/19 11:52:35;;;;;;;8.40;5.40;;;29.00;48.10;;;;;;5041114;28;20025;-77
2021/06/19 11:55:01;;;;;;;8.75;5.15;;;29.00;45.30;;;;;;5040095;28;20048;-76
2021/06/19 11:57:30;;;;;;;10.98;5.15;;;29.10;47.70;;;;;;5036314;28;20025;-77
2021/06/19 12:00:06;;;;;;;10.85;5.32;;;29.10;48.60;;;;;;5034967;28;20017;-77
2021/06/19 12:02:32;;;;;;;8.70;4.65;;;29.20;46.50;;;;;;5036402;28;20040;-77
2021/06/19 12:05:13;;;;;;;6.50;5.00;;;29.10;45.20;;;;;;5034372;28;20076;-77
2021/06/19 12:07:39;;;;;;;9.30;4.80;;;29.10;47.20;;;;;;5041118;28;20640;-76
2021/06/19 12:10:25;;;;;;;8.68;5.43;;;29.10;45.40;;;;;;5043189;28;20034;-77
2021/06/19 12:13:04;;;;;;;7.55;5.35;;;29.10;47.70;;;;;;5039980;28;20037;-77
2021/06/19 12:15:31;;;;;;;6.18;4.78;;;29.10;46.70;;;;;;5043022;28;20039;-77
2021/06/19 12:17:58;;;;;;;8.07;4.90;;;29.20;44.40;;;;;;5042508;28;20021;-76
2021/06/19 12:20:25;;;;;;;10.30;5.13;;;29.20;44.60;;;;;;5041072;28;20395;-75
2021/06/19 12:22:51;;;;;;;9.57;4.67;;;29.20;45.70;;;;;;5040483;28;20584;-76
2021/06/19 12:25:36;;;;;;;8.30;5.78;;;29.20;49.30;;;;;;5036525;28;20286;-76
2021/06/19 12:28:02;;;;;;;8.88;5.88;;;29.30;49.40;;;;;;5035633;28;20031;-74
2021/06/19 12:30:29;;;;;;;7.50;4.95;;;29.30;44.80;;;;;;5040253;28;20021;-76
2021/06/19 12:32:55;;;;;;;11.88;5.45;;;29.40;47.40;;;;;;5044593;28;20025;-75
2021/06/19 12:35:22;;;;;;;7.35;5.20;;;29.40;45.00;;;;;;5042799;28;20033;-75
2021/06/19 12:37:53;;;;;;;7.57;5.00;;;29.40;49.10;;;;;;5042353;28;20112;-74
2021/06/19 12:40:23;;;;;;;10.52;5.43;;;29.30;47.90;;;;;;5035755;28;20433;-75
2021/06/19 12:42:57;;;;;;;6.88;5.25;;;29.40;49.10;;;;;;5032269;28;20167;-75
2021/06/19 12:45:34;;;;;;;8.50;5.10;;;29.40;43.80;;;;;;5037045;28;20085;-76
2021/06/19 12:48:03;;;;;;;7.55;5.47;;;29.40;46.00;;;;;;5036036;28;20116;-75
2021/06/19 12:50:31;;;;;;;8.63;5.70;;;29.40;47.30;;;;;;5037553;28;20079;-75
2021/06/19 12:53:06;;;;;;;13.23;5.63;;;29.30;51.00;;;;;;5049027;28;20032;-75
2021/06/19 12:55:36;;;;;;;6.70;5.20;;;29.40;48.90;;;;;;5036634;28;21357;-76
2021/06/19 12:58:16;;;;;;;7.95;5.80;;;29.50;46.60;;;;;;5036440;28;20021;-75